sensor_id;sensor_type;location;lat;lon;timestamp;P1;durP1;ratioP1;P2;durP2;ratioP2
16866;SDS011;8550;52.596;13.320;2023-04-21T00:02:25;8.40;;;3.03;;
16866;SDS011;8550;52.596;13.320;2023-04-21T00:07:28;7.30;;;3.08;;
16866;SDS011;8550;52.596;13.320;2023-04-21T00:12:30;8.48;;;3.03;;
16866;SDS011;8550;52.596;13.320;2023-04-21T00:17:32;12.20;;;2.97;;
16866;SDS011;8550;52.596;13.320;2023-04-21T00:22:35;10.87;;;3.10;;
16866;SDS011;8550;52.596;13.320;2023-04-21T00:27:37;6.38;;;3.45;;
16866;SDS011;8550;52.596;13.320;2023-04-21T00:32:39;7.55;;;3.45;;
16866;SDS011;8550;52.596;13.320;2023-04-21T00:37:42;6.97;;;3.00;;
16866;SDS011;8550;52.596;13.320;2023-04-21T00:42:44;14.98;;;4.07;;
16866;SDS011;8550;52.596;13.320;2023-04-21T00:47:46;15.40;;;3.55;;
16866;SDS011;8550;52.596;13.320;2023-04-21T00:52:49;9.03;;;4.03;;
16866;SDS011;8550;52.596;13.320;2023-04-21T00:57:52;8.38;;;3.70;;
16866;SDS011;8550;52.596;13.320;2023-04-21T01:02:55;8.60;;;4.32;;
16866;SDS011;8550;52.596;13.320;2023-04-21T01:08:00;11.67;;;3.97;;
16866;SDS011;8550;52.596;13.320;2023-04-21T01:13:02;9.23;;;4.00;;
16866;SDS011;8550;52.596;13.320;2023-04-21T01:18:04;8.07;;;3.80;;
16866;SDS011;8550;52.596;13.320;2023-04-21T01:23:08;7.07;;;3.78;;
16866;SDS011;8550;52.596;13.320;2023-04-21T01:28:12;11.80;;;4.47;;
16866;SDS011;8550;52.596;13.320;2023-04-21T01:33:14;16.48;;;4.88;;
16866;SDS011;8550;52.596;13.320;2023-04-21T01:38:17;11.80;;;4.15;;
16866;SDS011;8550;52.596;13.320;2023-04-21T01:43:21;9.43;;;3.70;;
16866;SDS011;8550;52.596;13.320;2023-04-21T01:48:24;10.18;;;4.30;;
16866;SDS011;8550;52.596;13.320;2023-04-21T01:53:27;10.98;;;4.72;;
16866;SDS011;8550;52.596;13.320;2023-04-21T01:58:30;12.27;;;4.53;;
16866;SDS011;8550;52.596;13.320;2023-04-21T02:03:35;9.50;;;4.80;;
16866;SDS011;8550;52.596;13.320;2023-04-21T02:08:38;10.48;;;4.78;;
16866;SDS011;8550;52.596;13.320;2023-04-21T02:13:40;9.45;;;4.18;;
16866;SDS011;8550;52.596;13.320;2023-04-21T02:18:43;14.70;;;4.33;;
16866;SDS011;8550;52.596;13.320;2023-04-21T02:23:46;11.20;;;4.50;;
16866;SDS011;8550;52.596;13.320;2023-04-21T02:28:49;11.90;;;5.35;;
16866;SDS011;8550;52.596;13.320;2023-04-21T02:33:51;9.53;;;5.10;;
16866;SDS011;8550;52.596;13.320;2023-04-21T02:38:55;9.73;;;4.95;;
16866;SDS011;8550;52.596;13.320;2023-04-21T02:43:56;8.32;;;4.78;;
16866;SDS011;8550;52.596;13.320;2023-04-21T02:48:58;11.93;;;5.80;;
16866;SDS011;8550;52.596;13.320;2023-04-21T02:54:02;11.30;;;5.17;;
16866;SDS011;8550;52.596;13.320;2023-04-21T02:59:04;11.23;;;5.13;;
16866;SDS011;8550;52.596;13.320;2023-04-21T03:04:06;11.73;;;5.65;;
16866;SDS011;8550;52.596;13.320;2023-04-21T03:09:09;9.23;;;4.57;;
16866;SDS011;8550;52.596;13.320;2023-04-21T03:14:11;9.20;;;4.47;;
16866;SDS011;8550;52.596;13.320;2023-04-21T03:19:13;11.40;;;5.20;;
16866;SDS011;8550;52.596;13.320;2023-04-21T03:24:16;10.53;;;5.70;;
16866;SDS011;8550;52.596;13.320;2023-04-21T03:29:18;11.25;;;4.05;;
16866;SDS011;8550;52.596;13.320;2023-04-21T03:34:20;13.48;;;5.38;;
16866;SDS011;8550;52.596;13.320;2023-04-21T03:39:24;9.67;;;5.73;;
16866;SDS011;8550;52.596;13.320;2023-04-21T03:44:26;14.10;;;5.10;;
16866;SDS011;8550;52.596;13.320;2023-04-21T03:49:28;9.88;;;4.68;;
16866;SDS011;8550;52.596;13.320;2023-04-21T03:54:32;11.23;;;5.82;;
16866;SDS011;8550;52.596;13.320;2023-04-21T03:59:34;8.20;;;5.23;;
16866;SDS011;8550;52.596;13.320;2023-04-21T04:04:36;11.27;;;5.78;;
16866;SDS011;8550;52.596;13.320;2023-04-21T04:09:39;13.65;;;4.80;;
16866;SDS011;8550;52.596;13.320;2023-04-21T04:14:41;11.77;;;5.73;;
16866;SDS011;8550;52.596;13.320;2023-04-21T04:19:43;12.73;;;6.15;;
16866;SDS011;8550;52.596;13.320;2023-04-21T04:24:46;8.75;;;4.53;;
16866;SDS011;8550;52.596;13.320;2023-04-21T04:29:52;11.17;;;6.00;;
16866;SDS011;8550;52.596;13.320;2023-04-21T04:34:54;9.93;;;4.93;;
16866;SDS011;8550;52.596;13.320;2023-04-21T04:39:57;10.32;;;5.50;;
16866;SDS011;8550;52.596;13.320;2023-04-21T04:44:59;10.93;;;5.18;;
16866;SDS011;8550;52.596;13.320;2023-04-21T04:50:01;9.87;;;5.10;;
16866;SDS011;8550;52.596;13.320;2023-04-21T04:55:05;9.50;;;4.53;;
16866;SDS011;8550;52.596;13.320;2023-04-21T05:00:09;10.98;;;5.57;;
16866;SDS011;8550;52.596;13.320;2023-04-21T05:05:13;10.60;;;5.27;;
16866;SDS011;8550;52.596;13.320;2023-04-21T05:10:16;11.20;;;6.10;;
16866;SDS011;8550;52.596;13.320;2023-04-21T05:15:18;9.77;;;5.18;;
16866;SDS011;8550;52.596;13.320;2023-04-21T05:20:21;13.60;;;5.50;;
16866;SDS011;8550;52.596;13.320;2023-04-21T05:25:24;11.97;;;6.03;;
16866;SDS011;8550;52.596;13.320;2023-04-21T05:30:27;11.18;;;6.10;;
16866;SDS011;8550;52.596;13.320;2023-04-21T05:35:32;10.10;;;5.45;;
16866;SDS011;8550;52.596;13.320;2023-04-21T05:40:35;11.93;;;5.77;;
16866;SDS011;8550;52.596;13.320;2023-04-21T05:45:38;12.85;;;5.95;;
16866;SDS011;8550;52.596;13.320;2023-04-21T05:50:40;13.07;;;5.35;;
16866;SDS011;8550;52.596;13.320;2023-04-21T05:55:44;10.50;;;5.93;;
16866;SDS011;8550;52.596;13.320;2023-04-21T06:00:46;13.95;;;6.32;;
16866;SDS011;8550;52.596;13.320;2023-04-21T06:05:52;11.88;;;6.45;;
16866;SDS011;8550;52.596;13.320;2023-04-21T06:10:56;11.43;;;5.33;;
16866;SDS011;8550;52.596;13.320;2023-04-21T06:15:58;8.23;;;4.83;;
16866;SDS011;8550;52.596;13.320;2023-04-21T06:21:00;13.30;;;5.88;;
16866;SDS011;8550;52.596;13.320;2023-04-21T06:26:04;10.45;;;5.72;;
16866;SDS011;8550;52.596;13.320;2023-04-21T06:31:06;11.40;;;5.97;;
16866;SDS011;8550;52.596;13.320;2023-04-21T06:36:08;10.95;;;5.68;;
16866;SDS011;8550;52.596;13.320;2023-04-21T06:41:12;10.32;;;5.78;;
16866;SDS011;8550;52.596;13.320;2023-04-21T06:46:13;13.37;;;5.47;;
16866;SDS011;8550;52.596;13.320;2023-04-21T06:51:15;8.90;;;5.28;;
16866;SDS011;8550;52.596;13.320;2023-04-21T06:56:19;16.02;;;6.70;;
16866;SDS011;8550;52.596;13.320;2023-04-21T07:01:21;9.20;;;5.43;;
16866;SDS011;8550;52.596;13.320;2023-04-21T07:06:24;13.47;;;6.17;;
16866;SDS011;8550;52.596;13.320;2023-04-21T07:11:27;18.65;;;10.82;;
16866;SDS011;8550;52.596;13.320;2023-04-21T07:16:29;12.98;;;6.50;;
16866;SDS011;8550;52.596;13.320;2023-04-21T07:21:31;11.00;;;6.07;;
16866;SDS011;8550;52.596;13.320;2023-04-21T07:26:36;11.70;;;5.70;;
16866;SDS011;8550;52.596;13.320;2023-04-21T07:31:38;12.35;;;7.00;;
16866;SDS011;8550;52.596;13.320;2023-04-21T07:36:40;18.83;;;6.60;;
16866;SDS011;8550;52.596;13.320;2023-04-21T07:41:43;12.40;;;5.45;;
16866;SDS011;8550;52.596;13.320;2023-04-21T07:46:45;14.30;;;5.85;;
16866;SDS011;8550;52.596;13.320;2023-04-21T07:51:47;9.37;;;5.87;;
16866;SDS011;8550;52.596;13.320;2023-04-21T07:56:50;13.07;;;6.60;;
16866;SDS011;8550;52.596;13.320;2023-04-21T08:01:52;11.68;;;5.35;;
16866;SDS011;8550;52.596;13.320;2023-04-21T08:06:54;11.98;;;5.82;;
16866;SDS011;8550;52.596;13.320;2023-04-21T08:11:57;9.07;;;5.67;;
16866;SDS011;8550;52.596;13.320;2023-04-21T08:16:59;11.48;;;6.85;;
16866;SDS011;8550;52.596;13.320;2023-04-21T08:22:01;9.80;;;5.57;;
16866;SDS011;8550;52.596;13.320;2023-04-21T08:27:04;10.53;;;5.83;;
16866;SDS011;8550;52.596;13.320;2023-04-21T08:32:06;11.15;;;4.95;;
16866;SDS011;8550;52.596;13.320;2023-04-21T08:37:08;10.95;;;5.65;;
16866;SDS011;8550;52.596;13.320;2023-04-21T08:42:11;9.80;;;5.47;;
16866;SDS011;8550;52.596;13.320;2023-04-21T08:47:14;11.33;;;5.70;;
16866;SDS011;8550;52.596;13.320;2023-04-21T08:52:16;10.93;;;6.22;;
16866;SDS011;8550;52.596;13.320;2023-04-21T08:57:19;11.10;;;5.97;;
16866;SDS011;8550;52.596;13.320;2023-04-21T09:02:21;13.43;;;5.13;;
16866;SDS011;8550;52.596;13.320;2023-04-21T09:07:28;11.77;;;6.82;;
16866;SDS011;8550;52.596;13.320;2023-04-21T09:12:33;12.77;;;5.93;;
16866;SDS011;8550;52.596;13.320;2023-04-21T09:17:35;10.57;;;5.50;;
16866;SDS011;8550;52.596;13.320;2023-04-21T09:22:37;10.80;;;6.67;;
16866;SDS011;8550;52.596;13.320;2023-04-21T09:27:41;11.65;;;5.50;;
16866;SDS011;8550;52.596;13.320;2023-04-21T09:32:43;10.07;;;4.93;;
16866;SDS011;8550;52.596;13.320;2023-04-21T09:37:45;9.33;;;5.50;;
16866;SDS011;8550;52.596;13.320;2023-04-21T09:42:49;12.85;;;6.07;;
16866;SDS011;8550;52.596;13.320;2023-04-21T09:47:51;11.27;;;5.05;;
16866;SDS011;8550;52.596;13.320;2023-04-21T09:52:56;8.57;;;4.50;;
16866;SDS011;8550;52.596;13.320;2023-04-21T09:58:02;10.05;;;5.70;;
16866;SDS011;8550;52.596;13.320;2023-04-21T10:03:07;11.82;;;5.28;;
16866;SDS011;8550;52.596;13.320;2023-04-21T10:08:11;10.30;;;4.63;;
16866;SDS011;8550;52.596;13.320;2023-04-21T10:13:14;8.95;;;5.10;;
16866;SDS011;8550;52.596;13.320;2023-04-21T10:18:18;19.73;;;9.82;;
16866;SDS011;8550;52.596;13.320;2023-04-21T10:23:25;9.43;;;5.17;;
16866;SDS011;8550;52.596;13.320;2023-04-21T10:39:27;9.43;;;4.35;;
16866;SDS011;8550;52.596;13.320;2023-04-21T10:44:31;11.47;;;4.53;;
16866;SDS011;8550;52.596;13.320;2023-04-21T10:49:36;6.95;;;3.88;;
16866;SDS011;8550;52.596;13.320;2023-04-21T10:54:41;8.98;;;4.10;;
16866;SDS011;8550;52.596;13.320;2023-04-21T10:59:46;6.93;;;4.33;;
16866;SDS011;8550;52.596;13.320;2023-04-21T11:04:49;8.18;;;4.38;;
16866;SDS011;8550;52.596;13.320;2023-04-21T11:09:55;8.15;;;4.10;;
16866;SDS011;8550;52.596;13.320;2023-04-21T11:15:01;10.73;;;4.77;;
16866;SDS011;8550;52.596;13.320;2023-04-21T11:20:06;8.67;;;4.97;;
16866;SDS011;8550;52.596;13.320;2023-04-21T11:25:15;7.80;;;4.72;;
16866;SDS011;8550;52.596;13.320;2023-04-21T11:30:19;8.95;;;4.68;;
16866;SDS011;8550;52.596;13.320;2023-04-21T11:35:21;7.87;;;4.67;;
16866;SDS011;8550;52.596;13.320;2023-04-21T11:40:24;9.07;;;5.10;;
16866;SDS011;8550;52.596;13.320;2023-04-21T11:45:27;7.70;;;4.65;;
16866;SDS011;8550;52.596;13.320;2023-04-21T11:50:30;8.53;;;5.27;;
16866;SDS011;8550;52.596;13.320;2023-04-21T11:55:32;7.20;;;4.97;;
16866;SDS011;8550;52.596;13.320;2023-04-21T12:00:37;9.73;;;4.78;;
16866;SDS011;8550;52.596;13.320;2023-04-21T12:05:39;9.70;;;5.03;;
16866;SDS011;8550;52.596;13.320;2023-04-21T12:10:44;7.53;;;5.03;;
16866;SDS011;8550;52.596;13.320;2023-04-21T12:15:48;9.90;;;5.00;;
16866;SDS011;8550;52.596;13.320;2023-04-21T12:20:51;11.82;;;5.43;;
16866;SDS011;8550;52.596;13.320;2023-04-21T12:25:53;10.37;;;4.70;;
16866;SDS011;8550;52.596;13.320;2023-04-21T12:30:56;8.43;;;4.47;;
16866;SDS011;8550;52.596;13.320;2023-04-21T12:35:58;6.40;;;3.92;;
16866;SDS011;8550;52.596;13.320;2023-04-21T12:41:00;7.30;;;4.40;;
16866;SDS011;8550;52.596;13.320;2023-04-21T12:46:04;8.52;;;5.18;;
16866;SDS011;8550;52.596;13.320;2023-04-21T12:51:06;7.68;;;4.57;;
16866;SDS011;8550;52.596;13.320;2023-04-21T12:56:08;7.87;;;4.67;;
16866;SDS011;8550;52.596;13.320;2023-04-21T13:01:11;8.53;;;4.80;;
16866;SDS011;8550;52.596;13.320;2023-04-21T13:06:15;8.88;;;4.35;;
16866;SDS011;8550;52.596;13.320;2023-04-21T13:11:17;7.72;;;4.40;;
16866;SDS011;8550;52.596;13.320;2023-04-21T13:16:21;7.60;;;4.17;;
16866;SDS011;8550;52.596;13.320;2023-04-21T13:21:23;6.53;;;3.85;;
16866;SDS011;8550;52.596;13.320;2023-04-21T13:26:25;8.27;;;4.35;;
16866;SDS011;8550;52.596;13.320;2023-04-21T13:31:28;7.67;;;4.13;;
16866;SDS011;8550;52.596;13.320;2023-04-21T13:36:31;7.20;;;4.18;;
16866;SDS011;8550;52.596;13.320;2023-04-21T13:41:33;7.13;;;4.40;;
16866;SDS011;8550;52.596;13.320;2023-04-21T13:46:36;7.80;;;4.33;;
16866;SDS011;8550;52.596;13.320;2023-04-21T13:51:38;11.33;;;4.70;;
16866;SDS011;8550;52.596;13.320;2023-04-21T13:56:40;8.48;;;4.78;;
16866;SDS011;8550;52.596;13.320;2023-04-21T14:01:43;8.10;;;4.15;;
16866;SDS011;8550;52.596;13.320;2023-04-21T14:06:45;8.13;;;4.53;;
16866;SDS011;8550;52.596;13.320;2023-04-21T14:11:49;7.13;;;4.65;;
16866;SDS011;8550;52.596;13.320;2023-04-21T14:16:52;8.48;;;4.47;;
16866;SDS011;8550;52.596;13.320;2023-04-21T14:21:54;7.97;;;4.40;;
16866;SDS011;8550;52.596;13.320;2023-04-21T14:26:56;7.53;;;3.90;;
16866;SDS011;8550;52.596;13.320;2023-04-21T14:32:00;11.98;;;4.32;;
16866;SDS011;8550;52.596;13.320;2023-04-21T14:37:01;7.80;;;4.57;;
16866;SDS011;8550;52.596;13.320;2023-04-21T14:42:03;7.07;;;4.27;;
16866;SDS011;8550;52.596;13.320;2023-04-21T14:47:07;8.85;;;4.63;;
16866;SDS011;8550;52.596;13.320;2023-04-21T14:52:09;6.90;;;3.88;;
16866;SDS011;8550;52.596;13.320;2023-04-21T14:57:11;7.77;;;4.63;;
16866;SDS011;8550;52.596;13.320;2023-04-21T15:02:14;7.55;;;4.40;;
16866;SDS011;8550;52.596;13.320;2023-04-21T15:07:16;10.13;;;4.43;;
16866;SDS011;8550;52.596;13.320;2023-04-21T15:12:18;7.53;;;4.83;;
16866;SDS011;8550;52.596;13.320;2023-04-21T15:17:22;9.75;;;5.30;;
16866;SDS011;8550;52.596;13.320;2023-04-21T15:22:24;8.85;;;3.70;;
16866;SDS011;8550;52.596;13.320;2023-04-21T15:27:26;10.67;;;4.20;;
16866;SDS011;8550;52.596;13.320;2023-04-21T15:32:29;7.23;;;4.40;;
16866;SDS011;8550;52.596;13.320;2023-04-21T15:37:31;9.70;;;4.20;;
16866;SDS011;8550;52.596;13.320;2023-04-21T15:42:33;7.93;;;4.38;;
16866;SDS011;8550;52.596;13.320;2023-04-21T15:47:36;7.37;;;4.30;;
16866;SDS011;8550;52.596;13.320;2023-04-21T15:52:38;6.68;;;4.07;;
16866;SDS011;8550;52.596;13.320;2023-04-21T15:57:42;7.40;;;3.95;;
16866;SDS011;8550;52.596;13.320;2023-04-21T16:02:47;6.40;;;3.80;;
16866;SDS011;8550;52.596;13.320;2023-04-21T16:07:49;8.55;;;3.70;;
16866;SDS011;8550;52.596;13.320;2023-04-21T16:12:51;6.32;;;3.70;;
16866;SDS011;8550;52.596;13.320;2023-04-21T16:17:54;8.63;;;4.17;;
16866;SDS011;8550;52.596;13.320;2023-04-21T16:22:56;7.90;;;4.27;;
16866;SDS011;8550;52.596;13.320;2023-04-21T16:27:58;6.32;;;3.47;;
16866;SDS011;8550;52.596;13.320;2023-04-21T16:33:02;7.03;;;4.35;;
16866;SDS011;8550;52.596;13.320;2023-04-21T16:38:04;10.13;;;3.13;;
16866;SDS011;8550;52.596;13.320;2023-04-21T16:43:06;7.43;;;3.70;;
16866;SDS011;8550;52.596;13.320;2023-04-21T16:48:09;6.45;;;4.05;;
16866;SDS011;8550;52.596;13.320;2023-04-21T16:53:11;7.70;;;3.93;;
16866;SDS011;8550;52.596;13.320;2023-04-21T16:58:13;7.60;;;3.90;;
16866;SDS011;8550;52.596;13.320;2023-04-21T17:03:16;6.97;;;4.03;;
16866;SDS011;8550;52.596;13.320;2023-04-21T17:08:18;7.40;;;3.63;;
16866;SDS011;8550;52.596;13.320;2023-04-21T17:13:20;7.13;;;3.73;;
16866;SDS011;8550;52.596;13.320;2023-04-21T17:18:23;8.43;;;3.72;;
16866;SDS011;8550;52.596;13.320;2023-04-21T17:23:25;7.43;;;3.67;;
16866;SDS011;8550;52.596;13.320;2023-04-21T17:28:27;7.73;;;3.67;;
16866;SDS011;8550;52.596;13.320;2023-04-21T17:33:31;6.70;;;3.80;;
16866;SDS011;8550;52.596;13.320;2023-04-21T17:38:32;9.15;;;3.80;;
16866;SDS011;8550;52.596;13.320;2023-04-21T17:43:35;7.33;;;3.80;;
16866;SDS011;8550;52.596;13.320;2023-04-21T17:48:38;6.60;;;3.55;;
16866;SDS011;8550;52.596;13.320;2023-04-21T17:53:40;6.32;;;3.50;;
16866;SDS011;8550;52.596;13.320;2023-04-21T17:58:42;7.03;;;3.90;;
16866;SDS011;8550;52.596;13.320;2023-04-21T18:03:47;7.73;;;3.97;;
16866;SDS011;8550;52.596;13.320;2023-04-21T18:08:49;7.82;;;4.03;;
16866;SDS011;8550;52.596;13.320;2023-04-21T18:13:51;8.23;;;3.78;;
16866;SDS011;8550;52.596;13.320;2023-04-21T18:18:55;9.73;;;3.60;;
16866;SDS011;8550;52.596;13.320;2023-04-21T18:23:57;7.13;;;3.85;;
16866;SDS011;8550;52.596;13.320;2023-04-21T18:28:59;7.65;;;3.05;;
16866;SDS011;8550;52.596;13.320;2023-04-21T18:34:03;8.53;;;3.57;;
16866;SDS011;8550;52.596;13.320;2023-04-21T18:39:07;8.30;;;3.30;;
16866;SDS011;8550;52.596;13.320;2023-04-21T18:44:10;9.57;;;3.55;;
16866;SDS011;8550;52.596;13.320;2023-04-21T18:49:13;11.87;;;3.83;;
16866;SDS011;8550;52.596;13.320;2023-04-21T18:54:15;6.80;;;3.33;;
16866;SDS011;8550;52.596;13.320;2023-04-21T18:59:17;6.30;;;3.10;;
16866;SDS011;8550;52.596;13.320;2023-04-21T19:04:22;7.00;;;2.75;;
16866;SDS011;8550;52.596;13.320;2023-04-21T19:09:24;8.20;;;3.03;;
16866;SDS011;8550;52.596;13.320;2023-04-21T19:14:27;8.13;;;3.70;;
16866;SDS011;8550;52.596;13.320;2023-04-21T19:19:30;7.20;;;3.30;;
16866;SDS011;8550;52.596;13.320;2023-04-21T19:24:32;8.00;;;3.20;;
16866;SDS011;8550;52.596;13.320;2023-04-21T19:29:34;6.72;;;3.22;;
16866;SDS011;8550;52.596;13.320;2023-04-21T19:34:37;5.95;;;3.00;;
16866;SDS011;8550;52.596;13.320;2023-04-21T19:39:39;7.77;;;4.10;;
16866;SDS011;8550;52.596;13.320;2023-04-21T19:44:41;7.87;;;3.90;;
16866;SDS011;8550;52.596;13.320;2023-04-21T19:49:44;10.93;;;3.50;;
16866;SDS011;8550;52.596;13.320;2023-04-21T19:54:46;7.50;;;3.08;;
16866;SDS011;8550;52.596;13.320;2023-04-21T19:59:48;7.70;;;3.80;;
16866;SDS011;8550;52.596;13.320;2023-04-21T20:04:52;8.35;;;3.30;;
16866;SDS011;8550;52.596;13.320;2023-04-21T20:09:54;7.32;;;3.30;;
16866;SDS011;8550;52.596;13.320;2023-04-21T20:14:56;8.13;;;4.40;;
16866;SDS011;8550;52.596;13.320;2023-04-21T20:19:59;6.47;;;2.95;;
16866;SDS011;8550;52.596;13.320;2023-04-21T20:25:04;6.90;;;3.55;;
16866;SDS011;8550;52.596;13.320;2023-04-21T20:30:07;6.13;;;3.10;;
16866;SDS011;8550;52.596;13.320;2023-04-21T20:35:11;5.13;;;2.83;;
16866;SDS011;8550;52.596;13.320;2023-04-21T20:40:14;6.75;;;3.20;;
16866;SDS011;8550;52.596;13.320;2023-04-21T20:45:20;8.73;;;3.70;;
16866;SDS011;8550;52.596;13.320;2023-04-21T20:50:24;6.20;;;3.10;;
16866;SDS011;8550;52.596;13.320;2023-04-21T20:55:26;6.70;;;3.17;;
16866;SDS011;8550;52.596;13.320;2023-04-21T21:00:29;8.88;;;3.58;;
16866;SDS011;8550;52.596;13.320;2023-04-21T21:05:35;6.07;;;2.90;;
16866;SDS011;8550;52.596;13.320;2023-04-21T21:10:37;7.28;;;3.67;;
16866;SDS011;8550;52.596;13.320;2023-04-21T21:15:39;9.48;;;3.70;;
16866;SDS011;8550;52.596;13.320;2023-04-21T21:20:43;6.37;;;3.50;;
16866;SDS011;8550;52.596;13.320;2023-04-21T21:25:45;9.73;;;3.93;;
16866;SDS011;8550;52.596;13.320;2023-04-21T21:30:48;7.80;;;3.53;;
16866;SDS011;8550;52.596;13.320;2023-04-21T21:35:51;7.45;;;3.88;;
16866;SDS011;8550;52.596;13.320;2023-04-21T21:40:53;6.73;;;3.23;;
16866;SDS011;8550;52.596;13.320;2023-04-21T21:45:55;7.13;;;3.38;;
16866;SDS011;8550;52.596;13.320;2023-04-21T21:51:12;12.32;;;3.38;;
16866;SDS011;8550;52.596;13.320;2023-04-21T21:56:14;7.70;;;3.63;;
16866;SDS011;8550;52.596;13.320;2023-04-21T22:01:16;8.23;;;2.90;;
16866;SDS011;8550;52.596;13.320;2023-04-21T22:06:20;7.38;;;3.55;;
16866;SDS011;8550;52.596;13.320;2023-04-21T22:11:23;6.80;;;3.57;;
16866;SDS011;8550;52.596;13.320;2023-04-21T22:16:25;10.03;;;3.03;;
16866;SDS011;8550;52.596;13.320;2023-04-21T22:21:29;7.30;;;3.47;;
16866;SDS011;8550;52.596;13.320;2023-04-21T22:26:30;6.25;;;3.40;;
16866;SDS011;8550;52.596;13.320;2023-04-21T22:31:32;5.77;;;2.83;;
16866;SDS011;8550;52.596;13.320;2023-04-21T22:36:36;5.32;;;2.78;;
16866;SDS011;8550;52.596;13.320;2023-04-21T22:41:38;7.68;;;3.80;;
16866;SDS011;8550;52.596;13.320;2023-04-21T22:46:40;8.27;;;3.70;;
16866;SDS011;8550;52.596;13.320;2023-04-21T22:51:43;8.73;;;3.72;;
16866;SDS011;8550;52.596;13.320;2023-04-21T22:56:46;7.18;;;2.80;;
16866;SDS011;8550;52.596;13.320;2023-04-21T23:01:48;10.70;;;3.70;;
16866;SDS011;8550;52.596;13.320;2023-04-21T23:06:51;7.87;;;3.80;;
16866;SDS011;8550;52.596;13.320;2023-04-21T23:11:53;7.13;;;3.60;;
16866;SDS011;8550;52.596;13.320;2023-04-21T23:16:55;6.40;;;3.42;;
16866;SDS011;8550;52.596;13.320;2023-04-21T23:21:58;7.83;;;3.13;;
16866;SDS011;8550;52.596;13.320;2023-04-21T23:27:00;6.65;;;3.55;;
16866;SDS011;8550;52.596;13.320;2023-04-21T23:32:02;7.38;;;3.53;;
16866;SDS011;8550;52.596;13.320;2023-04-21T23:37:05;8.43;;;3.87;;
16866;SDS011;8550;52.596;13.320;2023-04-21T23:42:07;6.65;;;3.40;;
16866;SDS011;8550;52.596;13.320;2023-04-21T23:47:09;9.50;;;4.00;;
16866;SDS011;8550;52.596;13.320;2023-04-21T23:52:12;6.90;;;3.63;;
16866;SDS011;8550;52.596;13.320;2023-04-21T23:57:14;7.73;;;3.57;;
